Time;durP1;ratioP1;P1;durP2;ratioP2;P2;SDS_P1;SDS_P2;PMS_P1;PMS_P2;Temp;Humidity;BMP_temperature;BMP_pressure;BME280_temperature;BME280_humidity;BME280_pressure;Samples;Min_cycle;Max_cycle;Signal;HPM_P1;HPM_P2
2022/04/10 00:00:55;;;;;;;;;;;4.00;88.10;;;;;;10370010;28;84210;-46
2022/04/10 00:05:55;;;;;;;;;;;3.90;73.70;;;;;;10368957;28;85606;-46
2022/04/10 00:10:56;;;;;;;;;;;3.90;88.00;;;;;;10368073;28;86055;-48
2022/04/10 00:15:56;;;;;;;;;;;3.80;91.90;;;;;;10368148;28;84194;-45
2022/04/10 00:20:57;;;;;;;;;;;3.90;99.90;;;;;;10370312;28;84953;-46
2022/04/10 00:25:58;;;;;;;;;;;3.70;99.90;;;;;;10368921;28;84317;-44
2022/04/10 00:30:58;;;;;;;;;;;3.70;99.90;;;;;;10367666;28;85717;-44
2022/04/10 00:36:00;;;;;;;;;;;3.70;99.90;;;;;;10368423;28;85794;-44
2022/04/10 00:41:01;;;;;;;;;;;3.60;99.90;;;;;;10368179;28;86643;-47
2022/04/10 00:46:01;;;;;;;;;;;3.60;99.90;;;;;;10367674;28;84186;-45
2022/04/10 00:56:21;;;;;;;;;;;3.50;99.90;;;;;;10366248;28;85919;-45
2022/04/10 01:01:22;;;;;;;;;;;3.50;99.90;;;;;;10368824;28;84945;-45
2022/04/10 01:06:24;;;;;;;;;;;3.50;99.90;;;;;;10366268;28;86063;-46
2022/04/10 01:11:25;;;;;;;;;;;3.40;99.90;;;;;;10366269;28;86005;-45
2022/04/10 01:16:26;;;;;;;;;;;3.40;99.90;;;;;;10366340;28;86896;-45
2022/04/10 01:21:27;;;;;;;;;;;3.40;99.90;;;;;;10369241;28;84208;-49
2022/04/10 01:26:31;;;;;;;;;;;3.30;99.90;;;;;;10367183;28;84925;-46
2022/04/10 01:31:34;;;;;;;;;;;3.20;99.90;;;;;;10351270;28;86002;-46
2022/04/10 01:36:37;;;;;;;;;;;3.20;99.90;;;;;;10366030;28;86092;-45
2022/04/10 01:41:38;;;;;;;;;;;3.10;99.90;;;;;;10365297;28;86924;-45
2022/04/10 01:46:39;;;;;;;;;;;3.00;99.90;;;;;;10364750;28;86157;-45
2022/04/10 01:51:42;;;;;;;;;;;2.90;99.90;;;;;;10365591;28;85890;-45
2022/04/10 01:56:42;;;;;;;;;;;2.90;99.90;;;;;;10365791;28;86846;-46
2022/04/10 02:01:43;;;;;;;;;;;2.90;99.90;;;;;;10365573;28;85989;-45
2022/04/10 02:06:44;;;;;;;;;;;3.00;99.90;;;;;;10369851;28;87143;-46
2022/04/10 02:16:52;;;;;;;;;;;2.80;99.90;;;;;;10386322;28;86079;-44
2022/04/10 02:21:57;;;;;;;;;;;2.70;99.90;;;;;;10374040;28;84150;-45
2022/04/10 02:26:57;;;;;;;;;;;2.70;99.90;;;;;;10371436;28;85805;-46
2022/04/10 02:31:58;;;;;;;;;;;2.60;99.90;;;;;;10372072;28;84894;-44
2022/04/10 02:36:59;;;;;;;;;;;2.60;99.90;;;;;;10372391;28;84724;-46
2022/04/10 02:42:00;;;;;;;;;;;2.50;99.90;;;;;;10372329;28;86922;-44
2022/04/10 02:47:01;;;;;;;;;;;2.50;99.90;;;;;;10370638;28;86882;-47
2022/04/10 02:52:03;;;;;;;;;;;2.50;99.90;;;;;;10372834;28;85854;-45
2022/04/10 02:57:03;;;;;;;;;;;2.50;99.90;;;;;;10362413;28;87035;-45
2022/04/10 03:02:04;;;;;;;;;;;2.50;99.90;;;;;;10360811;28;87023;-45
2022/04/10 03:07:05;;;;;;;;;;;2.50;99.90;;;;;;10371076;28;85982;-45
2022/04/10 03:12:08;;;;;;;;;;;2.50;99.90;;;;;;10362199;28;85999;-45
2022/04/10 03:17:10;;;;;;;;;;;2.50;99.90;;;;;;10369587;28;86522;-45
2022/04/10 03:22:11;;;;;;;;;;;2.50;99.90;;;;;;10366458;28;86904;-45
2022/04/10 03:27:12;;;;;;;;;;;2.50;99.90;;;;;;10371931;28;84684;-45
2022/04/10 03:32:14;;;;;;;;;;;2.50;99.90;;;;;;10371255;28;86742;-45
2022/04/10 03:37:15;;;;;;;;;;;2.50;99.90;;;;;;10370336;28;86230;-45
2022/04/10 03:42:16;;;;;;;;;;;2.50;99.90;;;;;;10370138;28;85839;-44
2022/04/10 03:47:17;;;;;;;;;;;2.50;99.90;;;;;;10369083;28;85763;-47
2022/04/10 03:52:18;;;;;;;;;;;2.50;99.90;;;;;;10369421;28;85933;-50
2022/04/10 03:57:20;;;;;;;;;;;2.40;99.90;;;;;;10360261;28;86887;-45
2022/04/10 04:02:22;;;;;;;;;;;2.40;99.90;;;;;;10365808;28;86167;-44
2022/04/10 04:07:24;;;;;;;;;;;2.40;99.90;;;;;;10364814;28;86717;-53
2022/04/10 04:12:25;;;;;;;;;;;2.40;99.90;;;;;;10363294;28;86682;-45
2022/04/10 04:17:25;;;;;;;;;;;2.40;99.90;;;;;;10363386;28;86046;-48
2022/04/10 04:22:27;;;;;;;;;;;2.40;99.90;;;;;;10367026;28;87025;-46
2022/04/10 04:27:27;;;;;;;;;;;2.40;99.90;;;;;;10364062;28;84797;-45
2022/04/10 04:32:29;;;;;;;;;;;2.40;99.90;;;;;;10367313;28;86826;-48
2022/04/10 04:37:30;;;;;;;;;;;2.40;99.90;;;;;;10368356;28;84737;-45
2022/04/10 04:42:30;;;;;;;;;;;2.40;99.90;;;;;;10369061;28;84697;-47
2022/04/10 04:47:31;;;;;;;;;;;2.40;99.90;;;;;;10367629;28;84939;-50
2022/04/10 04:52:32;;;;;;;;;;;2.30;99.90;;;;;;10365866;28;86436;-47
2022/04/10 04:57:33;;;;;;;;;;;2.40;99.90;;;;;;10365591;28;86106;-45
2022/04/10 05:02:33;;;;;;;;;;;2.30;99.90;;;;;;10366207;28;85038;-45
2022/04/10 05:07:34;;;;;;;;;;;2.40;99.90;;;;;;10378373;28;86734;-46
2022/04/10 05:12:34;;;;;;;;;;;2.40;99.90;;;;;;10368376;28;86696;-47
2022/04/10 05:17:37;;;;;;;;;;;2.40;99.90;;;;;;10379212;28;86759;-46
2022/04/10 05:22:40;;;;;;;;;;;2.60;99.90;;;;;;10377397;28;86780;-46
2022/04/10 05:27:43;;;;;;;;;;;2.50;99.90;;;;;;10365841;28;85854;-46
2022/04/10 05:32:44;;;;;;;;;;;2.60;99.90;;;;;;10366615;28;86726;-45
2022/04/10 05:37:47;;;;;;;;;;;2.50;99.90;;;;;;10366123;28;85881;-45
2022/04/10 05:42:49;;;;;;;;;;;2.60;99.90;;;;;;10357351;28;86621;-44
2022/04/10 05:47:52;;;;;;;;;;;2.70;99.90;;;;;;10374742;28;85811;-44
2022/04/10 05:52:56;;;;;;;;;;;2.80;99.90;;;;;;10372056;28;86580;-44
2022/04/10 05:58:01;;;;;;;;;;;2.90;99.90;;;;;;10369493;28;86783;-47
2022/04/10 06:03:03;;;;;;;;;;;3.00;99.90;;;;;;10370198;28;86598;-46
2022/04/10 06:08:04;;;;;;;;;;;3.00;99.90;;;;;;10369397;28;86779;-45
2022/04/10 06:13:11;;;;;;;;;;;3.20;99.90;;;;;;10368402;28;86920;-45
2022/04/10 06:18:20;;;;;;;;;;;3.40;99.90;;;;;;10366316;28;87029;-43
2022/04/10 06:23:23;;;;;;;;;;;3.50;99.90;;;;;;10369350;28;85836;-43
2022/04/10 06:28:27;;;;;;;;;;;3.60;99.90;;;;;;10368480;28;85663;-47
2022/04/10 06:33:28;;;;;;;;;;;3.90;99.90;;;;;;10369081;28;86704;-45
2022/04/10 06:38:32;;;;;;;;;;;4.10;99.90;;;;;;10368460;28;87087;-45
2022/04/10 06:43:39;;;;;;;;;;;4.50;20.40;;;;;;10350816;28;87128;-44
2022/04/10 06:48:58;;;;;;;;;;;5.10;1.00;;;;;;10366714;28;84517;-45
2022/04/10 06:54:00;;;;;;;;;;;5.70;1.00;;;;;;10367277;28;85697;-49
2022/04/10 06:59:00;;;;;;;;;;;6.30;1.00;;;;;;10367796;28;86526;-45
2022/04/10 07:04:02;;;;;;;;;;;7.10;1.00;;;;;;10365218;28;85605;-45
2022/04/10 07:09:04;;;;;;;;;;;7.40;1.00;;;;;;10358734;28;86841;-51
2022/04/10 07:14:07;;;;;;;2.65;1.60;;;7.50;1.00;;;;;;10370141;28;86013;-48
2022/04/10 07:19:09;;;;;;;4.10;1.95;;;8.10;1.00;;;;;;10401984;28;85741;-46
2022/04/10 07:24:12;;;;;;;5.03;1.85;;;8.40;99.90;;;;;;10373977;28;86685;-48
2022/04/10 07:29:18;;;;;;;;;;;8.50;99.90;;;;;;10368663;28;86874;-46
2022/04/10 07:34:21;;;;;;;;;;;8.20;99.90;;;;;;10364183;28;85837;-46
2022/04/10 07:39:44;;;;;;;;;;;7.70;99.90;;;;;;10365852;28;85849;-47
2022/04/10 07:44:59;;;;;;;;;;;7.60;1.00;;;;;;10377481;28;86242;-47
2022/04/10 07:50:11;;;;;;;;;;;7.60;1.00;;;;;;10395397;28;86602;-46
2022/04/10 07:55:12;;;;;;;;;;;7.50;1.00;;;;;;10386422;28;85759;-45
2022/04/10 08:00:19;;;;;;;;;;;7.30;1.00;;;;;;10374777;28;85877;-45
2022/04/10 08:05:28;;;;;;;;;;;7.10;1.00;;;;;;10377672;28;86930;-48
2022/04/10 08:10:48;;;;;;;;;;;6.80;1.00;;;;;;10377023;28;84094;-48
2022/04/10 08:15:49;;;;;;;;;;;6.60;1.00;;;;;;10420837;22;84891;-62
2022/04/10 08:20:51;;;;;;;;;;;6.20;1.00;;;;;;10414743;28;85353;-59
2022/04/10 08:25:51;;;;;;;;;;;6.20;1.00;;;;;;10371688;28;87079;-61
2022/04/10 08:30:52;;;;;;;;;;;6.90;1.00;;;;;;10409573;28;86614;-59
2022/04/10 08:35:53;;;;;;;;;;;7.80;1.00;;;;;;10361295;28;84949;-59
2022/04/10 08:40:57;;;;;;;;;;;9.40;99.90;;;;;;10384549;28;85263;-59
2022/04/10 08:45:58;;;;;;;;;;;9.90;99.90;;;;;;10351471;28;86783;-59
2022/04/10 08:50:59;;;;;;;;;;;10.20;57.30;;;;;;10375793;28;84736;-60
2022/04/10 08:56:01;;;;;;;;;;;10.10;22.90;;;;;;10351642;28;87223;-60
2022/04/10 09:01:01;;;;;;;;;;;9.40;99.90;;;;;;10371161;28;84190;-60
2022/04/10 09:06:03;;;;;;;;;;;9.30;99.90;;;;;;10370303;28;84950;-60
2022/04/10 09:11:08;;;;;;;;;;;9.00;99.90;;;;;;10370368;28;84038;-60
2022/04/10 09:16:15;;;;;;;;;;;8.80;99.90;;;;;;10368832;28;84751;-60
2022/04/10 09:21:17;;;;;;;;;;;9.00;99.90;;;;;;10371645;28;84049;-60
2022/04/10 09:26:18;;;;;;;;;;;9.30;99.90;;;;;;10351779;28;86058;-60
2022/04/10 09:31:25;;;;;;;;;;;9.30;1.00;;;;;;10352036;28;86883;-58
2022/04/10 09:36:29;;;;;;;;;;;9.80;1.00;;;;;;10369214;28;85423;-59
2022/04/10 09:41:30;;;;;;;;;;;10.30;1.00;;;;;;10370111;28;84186;-59
2022/04/10 09:46:31;;;;;;;;;;;11.00;1.00;;;;;;10368644;28;84860;-58
2022/04/10 09:51:32;;;;;;;;;;;11.30;99.90;;;;;;10371388;28;84955;-62
2022/04/10 09:56:32;;;;;;;;;;;11.30;74.90;;;;;;10369809;28;85713;-59
2022/04/10 10:01:33;;;;;;;;;;;11.70;1.00;;;;;;10354164;28;84866;-57
2022/04/10 10:06:38;;;;;;;;;;;12.60;99.90;;;;;;10369478;28;85082;-59
2022/04/10 10:11:40;;;;;;;;;;;12.50;1.00;;;;;;10370408;28;84725;-59
2022/04/10 10:16:41;;;;;;;;;;;12.10;1.00;;;;;;10368402;28;84138;-59
2022/04/10 10:21:42;;;;;;;;;;;13.50;1.00;;;;;;10372544;28;85040;-60
2022/04/10 10:27:01;;;;;;;;;;;13.70;99.90;;;;;;10355953;28;84346;-60
2022/04/10 10:32:02;;;;;;;;;;;12.90;99.90;;;;;;10375664;28;84743;-61
2022/04/10 10:37:03;;;;;;;;;;;13.00;99.90;;;;;;10379590;28;84741;-59
2022/04/10 10:42:10;;;;;;;;;;;13.80;1.00;;;;;;10392236;28;85077;-59
2022/04/10 10:47:16;;;;;;;;;;;13.40;1.00;;;;;;10366243;28;86569;-59
2022/04/10 10:52:17;;;;;;;;;;;13.30;99.90;;;;;;10375502;28;84303;-58
2022/04/10 10:57:41;;;;;;;;;;;12.00;1.00;;;;;;10355830;28;87281;-59
2022/04/10 11:02:46;;;;;;;;;;;11.10;1.00;;;;;;10347673;28;85207;-58
2022/04/10 11:07:55;;;;;;;;;;;11.00;1.00;;;;;;10368343;28;84685;-53
2022/04/10 11:13:16;;;;;;;;;;;11.50;99.90;;;;;;10374535;28;84882;-53
2022/04/10 11:18:28;;;;;;;;;;;12.40;1.00;;;;;;10391816;28;84081;-55
2022/04/10 11:23:29;;;;;;;;;;;13.50;1.00;;;;;;10347986;28;85928;-58
2022/04/10 11:28:31;;;;;;;;;;;13.70;1.00;;;;;;10395848;28;84224;-59
2022/04/10 11:33:47;;;;;;;;;;;15.00;99.90;;;;;;10387275;28;84184;-63
2022/04/10 11:39:06;;;;;;;;;;;15.30;1.00;;;;;;10385054;28;84698;-65
2022/04/10 11:44:07;;;;;;;;;;;14.60;99.90;;;;;;10374130;28;84213;-60
2022/04/10 11:49:08;;;;;;;;;;;15.30;99.90;;;;;;10374239;28;84900;-59
2022/04/10 11:54:11;;;;;;;;;;;13.70;1.00;;;;;;10371632;28;84834;-56
2022/04/10 11:59:12;;;;;;;;;;;12.20;99.90;;;;;;10406314;28;84889;-58
2022/04/10 12:04:12;;;;;;;;;;;11.40;1.00;;;;;;10369802;28;84910;-56
2022/04/10 12:09:14;;;;;;;;;;;11.20;1.00;;;;;;10371039;28;84197;-55
2022/04/10 12:14:21;;;;;;;;;;;11.30;1.00;;;;;;10403535;28;84227;-56
2022/04/10 12:19:34;;;;;;;;;;;11.40;99.90;;;;;;10382376;28;84223;-57
2022/04/10 12:24:35;;;;;;;;;;;10.70;1.00;;;;;;10357223;28;84941;-57
2022/04/10 12:29:36;;;;;;;;;;;11.70;1.00;;;;;;10378385;28;84129;-57
2022/04/10 12:34:39;;;;;;;;;;;13.50;99.90;;;;;;10371238;28;84018;-56
2022/04/10 12:39:40;;;;;;;;;;;12.90;1.00;;;;;;10370560;28;84871;-56
2022/04/10 12:44:41;;;;;;;;;;;12.30;99.90;;;;;;10365848;28;86168;-56
2022/04/10 12:50:01;;;;;;;;;;;11.80;94.40;;;;;;10370687;28;84361;-54
2022/04/10 12:55:02;;;;;;;;;;;11.60;99.90;;;;;;10370048;28;84110;-56
2022/04/10 13:00:03;;;;;;;;;;;11.50;99.90;;;;;;10373020;28;84269;-56
2022/04/10 13:05:05;;;;;;;;;;;11.20;1.00;;;;;;10381677;28;84289;-54
2022/04/10 13:10:06;;;;;;;;;;;10.70;99.90;;;;;;10377894;28;84913;-55
2022/04/10 13:15:07;;;;;;;;;;;10.50;1.00;;;;;;10385865;28;84998;-55
2022/04/10 13:20:12;;;;;;;;;;;11.00;99.90;;;;;;10389338;28;84118;-53
2022/04/10 13:25:13;;;;;;;;;;;11.60;1.00;;;;;;10369326;28;84028;-56
2022/04/10 13:30:13;;;;;;;;;;;11.40;1.00;;;;;;10368727;28;85261;-54
2022/04/10 13:35:15;;;;;;;;;;;10.30;1.00;;;;;;10351644;28;84695;-53
2022/04/10 13:40:16;;;;;;;;;;;9.90;65.00;;;;;;10341883;28;84074;-56
2022/04/10 13:45:16;;;;;;;;;;;9.60;99.90;;;;;;10363600;28;84282;-58
2022/04/10 13:50:18;;;;;;;;;;;9.90;99.90;;;;;;10334975;28;84106;-57
2022/04/10 13:55:18;;;;;;;;;;;11.80;1.00;;;;;;10330540;28;85667;-57
2022/04/10 14:00:19;;;;;;;;;;;13.30;99.90;;;;;;10316869;28;85172;-56
2022/04/10 14:05:19;;;;;;;;;;;14.40;1.00;;;;;;10340120;28;84162;-58
2022/04/10 14:10:20;;;;;;;;;;;15.70;93.60;;;;;;10321213;28;88057;-55
2022/04/10 14:15:21;;;;;;;;;;;16.30;16.00;;;;;;10378857;22;85928;-49
2022/04/10 14:20:22;;;;;;;;;;;17.30;1.00;;;;;;10374069;28;84911;-47
2022/04/10 14:25:22;;;;;;;;;;;17.30;1.00;;;;;;10355585;28;84128;-53
2022/04/10 14:30:23;;;;;;;;;;;18.20;1.00;;;;;;10354810;28;84259;-49
2022/04/10 14:35:24;;;;;;;;;;;17.20;99.90;;;;;;10365372;28;84999;-47
2022/04/10 14:40:25;;;;;;;;;;;16.00;99.90;;;;;;10361559;28;93081;-48
2022/04/10 14:45:25;;;;;;;;;;;15.00;99.90;;;;;;10356264;28;84883;-56
2022/04/10 14:50:26;;;;;;;;;;;14.40;99.90;;;;;;10342249;28;84875;-53
2022/04/10 14:55:26;;;;;;;;;;;14.00;1.00;;;;;;10336754;28;84055;-47
2022/04/10 15:00:27;;;;;;;;;;;13.80;1.00;;;;;;10336001;28;84815;-51
2022/04/10 15:05:28;;;;;;;;;;;13.20;1.00;;;;;;10337194;28;87027;-50
2022/04/10 15:10:29;;;;;;;;;;;13.00;99.90;;;;;;10375814;28;85745;-49
2022/04/10 15:15:29;;;;;;;;;;;13.00;1.00;;;;;;10381462;28;84861;-50
2022/04/10 15:20:30;;;;;;;;;;;12.90;1.00;;;;;;10373601;28;84480;-59
2022/04/10 15:25:30;;;;;;;;;;;13.10;1.00;;;;;;10387477;28;85101;-51
2022/04/10 15:30:31;;;;;;;;;;;12.90;1.00;;;;;;10390625;28;84947;-51
2022/04/10 15:35:32;;;;;;;;;;;12.60;99.90;;;;;;10384513;28;85180;-54
2022/04/10 15:40:32;;;;;;;;;;;12.30;99.90;;;;;;10375956;28;84933;-56
2022/04/10 15:45:33;;;;;;;;;;;12.10;1.00;;;;;;10366277;28;84965;-57
2022/04/10 15:50:33;;;;;;;;;;;11.90;1.00;;;;;;10415000;28;84040;-50
2022/04/10 15:55:34;;;;;;;;;;;11.80;99.90;;;;;;10413005;28;84688;-48
2022/04/10 16:00:35;;;;;;;;;;;11.70;99.90;;;;;;10383948;28;85319;-53
2022/04/10 16:05:36;;;;;;;;;;;11.70;1.00;;;;;;10368973;28;86594;-54
2022/04/10 16:10:36;;;;;;;;;;;11.60;1.00;;;;;;10379500;28;84924;-51
2022/04/10 16:15:37;;;;;;;;;;;11.50;1.00;;;;;;10370363;28;85285;-50
2022/04/10 16:20:37;;;;;;;;;;;11.50;1.00;;;;;;10381701;28;84220;-46
2022/04/10 16:25:38;;;;;;;;;;;11.50;1.00;;;;;;10374839;28;84863;-51
2022/04/10 16:30:38;;;;;;;;;;;11.50;99.90;;;;;;10352393;28;87038;-57
2022/04/10 16:35:42;;;;;;;;;;;11.60;1.00;;;;;;10373803;28;84268;-57
2022/04/10 16:40:43;;;;;;;;;;;11.80;1.00;;;;;;10384687;28;84203;-52
2022/04/10 16:45:44;;;;;;;;;;;11.90;99.90;;;;;;10390499;28;86605;-54
2022/04/10 16:50:45;;;;;;;;;;;11.90;99.90;;;;;;10369229;28;85159;-53
2022/04/10 16:55:45;;;;;;;;;;;12.00;99.90;;;;;;10367996;28;84761;-53
2022/04/10 17:00:46;;;;;;;;;;;12.00;99.90;;;;;;10355882;28;86567;-49
2022/04/10 17:05:46;;;;;;;;;;;11.80;1.00;;;;;;10393884;28;84476;-51
2022/04/10 17:10:47;;;;;;;;;;;11.70;1.00;;;;;;10397355;28;86799;-59
2022/04/10 17:15:47;;;;;;;;;;;11.30;1.00;;;;;;10398107;28;84974;-51
2022/04/10 17:20:48;;;;;;;;;;;11.00;1.00;;;;;;10383310;28;84310;-51
2022/04/10 17:25:48;;;;;;;;;;;10.80;1.00;;;;;;10364574;28;84147;-47
2022/04/10 17:30:49;;;;;;;;;;;10.50;1.00;;;;;;10356914;28;85055;-49
2022/04/10 17:35:50;;;;;;;;;;;10.40;1.00;;;;;;10362278;28;84268;-46
2022/04/10 17:40:50;;;;;;;;;;;10.40;1.00;;;;;;10344885;28;85657;-46
2022/04/10 17:45:51;;;;;;;;;;;10.40;1.00;;;;;;10334201;28;84897;-55
2022/04/10 17:50:51;;;;;;;;;;;10.30;3.40;;;;;;10335096;28;84042;-49
2022/04/10 17:55:52;;;;;;;;;;;10.10;1.00;;;;;;10347558;28;84768;-50
2022/04/10 18:00:52;;;;;;;;;;;10.00;1.00;;;;;;10352136;28;84256;-49
2022/04/10 18:05:53;;;;;;;;;;;9.90;1.00;;;;;;10343730;28;85898;-52
2022/04/10 18:10:54;;;;;;;;;;;9.90;1.00;;;;;;10377240;28;85669;-51
2022/04/10 18:15:55;;;;;;;;;;;9.80;1.00;;;;;;10373025;28;84204;-50
2022/04/10 18:20:56;;;;;;;;;;;9.70;60.10;;;;;;10341346;28;86077;-47
2022/04/10 18:25:57;;;;;;;;;;;9.70;99.90;;;;;;10370853;28;84799;-56
2022/04/10 18:31:00;;;;;;;;;;;9.60;99.90;;;;;;10371637;28;84629;-48
2022/04/10 18:36:03;;;;;;;;;;;9.50;1.00;;;;;;10370999;28;84298;-50
2022/04/10 18:41:06;;;;;;;;;;;9.50;1.00;;;;;;10367558;28;84808;-53
2022/04/10 18:46:07;;;;;;;;;;;9.40;1.00;;;;;;10347856;28;87171;-48
2022/04/10 18:51:08;;;;;;;;;;;9.20;1.00;;;;;;10371901;28;84181;-52
2022/04/10 18:56:08;;;;;;;;;;;9.00;1.00;;;;;;10372741;28;84729;-53
2022/04/10 19:01:09;;;;;;;;;;;8.90;1.00;;;;;;10374909;28;84180;-48
2022/04/10 19:06:11;;;;;;;;;;;8.80;1.00;;;;;;10367800;28;84882;-50
2022/04/10 19:11:12;;;;;;;;;;;8.80;99.90;;;;;;10355811;28;87120;-53
2022/04/10 19:16:13;;;;;;;;;;;8.70;1.00;;;;;;10354190;28;85056;-52
2022/04/10 19:21:13;;;;;;;;;;;8.60;1.00;;;;;;10361264;28;84910;-52
2022/04/10 19:26:15;;;;;;;;;;;8.50;99.90;;;;;;10369441;28;87335;-49
2022/04/10 19:31:15;;;;;;;;;;;8.40;1.00;;;;;;10365132;28;84973;-50
2022/04/10 19:36:16;;;;;;;;;;;8.30;1.00;;;;;;10370436;28;89582;-53
2022/04/10 19:41:17;;;;;;;;;;;8.20;1.00;;;;;;10369945;28;85338;-49
2022/04/10 19:46:18;;;;;;;;;;;8.20;99.90;;;;;;10370633;28;85714;-54
2022/04/10 19:51:19;;;;;;;;;;;8.00;1.00;;;;;;10368710;28;85344;-47
2022/04/10 19:56:20;;;;;;;;;;;7.90;1.00;;;;;;10348989;28;85232;-53
2022/04/10 20:01:20;;;;;;;;;;;7.80;1.00;;;;;;10341828;28;84379;-53
2022/04/10 20:06:21;;;;;;;;;;;7.70;99.90;;;;;;10336494;28;84875;-47
2022/04/10 20:11:21;;;;;;;;;;;7.60;1.00;;;;;;10333317;28;84222;-55
2022/04/10 20:16:22;;;;;;;;;;;7.50;1.00;;;;;;10335762;22;86999;-48
2022/04/10 20:21:23;;;;;;;;;;;7.50;1.00;;;;;;10334311;28;84413;-48
2022/04/10 20:26:23;;;;;;;;;;;7.40;1.00;;;;;;10345953;28;84602;-49
2022/04/10 20:31:24;;;;;;;;;;;7.40;1.00;;;;;;10349081;28;88636;-52
2022/04/10 20:36:24;;;;;;;;;;;7.30;1.00;;;;;;10315186;28;85872;-48
2022/04/10 20:41:25;;;;;;;;;;;7.20;36.00;;;;;;10322397;28;85534;-48
2022/04/10 20:46:25;;;;;;;;;;;7.20;99.90;;;;;;10337259;28;84231;-49
2022/04/10 20:51:26;;;;;;;;;;;7.10;99.90;;;;;;10329147;28;84161;-51
2022/04/10 20:56:27;;;;;;;;;;;7.00;99.90;;;;;;10328801;28;84112;-49
2022/04/10 21:01:27;;;;;;;;;;;6.90;99.90;;;;;;10335541;28;84231;-48
2022/04/10 21:06:28;;;;;;;;;;;6.90;99.90;;;;;;10337846;28;84325;-46
2022/04/10 21:11:28;;;;;;;;;;;6.80;99.90;;;;;;10326556;28;84978;-50
2022/04/10 21:16:29;;;;;;;;;;;6.80;99.90;;;;;;10322333;28;84960;-50
2022/04/10 21:21:30;;;;;;;;;;;6.70;1.00;;;;;;10324311;28;85977;-49
2022/04/10 21:26:30;;;;;;;;;;;6.70;99.90;;;;;;10323320;28;84147;-48
2022/04/10 21:31:31;;;;;;;;;;;6.60;99.90;;;;;;10323956;28;85259;-49
2022/04/10 21:36:32;;;;;;;;;;;6.50;99.90;;;;;;10322581;28;85131;-51
2022/04/10 21:41:33;;;;;;;;;;;6.40;99.90;;;;;;10323845;28;85486;-49
2022/04/10 21:46:33;;;;;;;;;;;6.40;99.90;;;;;;10321699;28;84281;-48
2022/04/10 21:51:34;;;;;;;;;;;6.30;99.90;;;;;;10323415;28;84920;-51
2022/04/10 21:56:34;;;;;;;;;;;6.30;99.90;;;;;;10322060;28;84944;-46
2022/04/10 22:01:35;;;;;;;;;;;6.20;1.00;;;;;;10322985;28;87586;-49
2022/04/10 22:06:35;;;;;;;;;;;6.10;1.00;;;;;;10321394;28;84118;-45
2022/04/10 22:11:36;;;;;;;;;;;6.00;1.00;;;;;;10322755;28;87559;-48
2022/04/10 22:16:36;;;;;;;;;;;6.00;1.00;;;;;;10320025;28;85000;-47
2022/04/10 22:21:37;;;;;;;;;;;6.00;1.00;;;;;;10324935;28;84113;-48
2022/04/10 22:26:37;;;;;;;;;;;5.90;1.00;;;;;;10328212;28;84232;-46
2022/04/10 22:31:38;;;;;;;;;;;5.90;1.00;;;;;;10328270;28;84246;-47
2022/04/10 22:36:38;;;;;;;;;;;5.80;1.00;;;;;;10325203;28;86754;-46
2022/04/10 22:41:39;;;;;;;;;;;5.70;1.00;;;;;;10329844;28;84888;-46
2022/04/10 22:46:39;;;;;;;;;;;5.60;1.00;;;;;;10328558;28;84125;-48
2022/04/10 22:51:40;;;;;;;;;;;5.50;1.00;;;;;;10330113;28;85409;-46
2022/04/10 22:56:40;;;;;;;;;;;5.50;1.00;;;;;;10329009;28;84314;-50
2022/04/10 23:01:41;;;;;;;;;;;5.50;1.00;;;;;;10327224;28;86317;-46
2022/04/10 23:06:41;;;;;;;;;;;5.40;1.00;;;;;;10325717;28;84840;-50
2022/04/10 23:11:42;;;;;;;;;;;5.40;1.00;;;;;;10326782;28;84902;-47
2022/04/10 23:16:43;;;;;;;;;;;5.30;1.00;;;;;;10325549;28;84073;-47
2022/04/10 23:21:43;;;;;;;;;;;5.20;1.00;;;;;;10308049;28;85089;-52
2022/04/10 23:26:44;;;;;;;;;;;5.20;1.00;;;;;;10324376;28;84998;-47
2022/04/10 23:31:44;;;;;;;;;;;5.10;1.00;;;;;;10332082;28;86006;-50
2022/04/10 23:36:45;;;;;;;;;;;5.10;1.00;;;;;;10345823;28;84982;-50
2022/04/10 23:41:45;;;;;;;;;;;5.10;1.00;;;;;;10328054;28;84134;-49
2022/04/10 23:46:46;;;;;;;;;;;5.00;1.00;;;;;;10327334;28;85028;-50
2022/04/10 23:51:46;;;;;;;;;;;5.00;1.00;;;;;;10328747;28;84146;-50
2022/04/10 23:56:47;;;;;;;;;;;5.00;1.00;;;;;;10326552;28;84316;-48
